createdAt,value
2023-01-10T00:00:41.663Z,1.80
2023-01-10T00:06:54.712Z,1.85
2023-01-10T00:13:22.083Z,1.35
2023-01-10T00:19:32.713Z,2.42
2023-01-10T00:32:03.574Z,1.53
2023-01-10T00:38:15.753Z,1.60
2023-01-10T00:44:26.459Z,1.87
2023-01-10T00:50:38.732Z,1.62
2023-01-10T00:56:48.188Z,1.35
2023-01-10T01:03:02.482Z,1.57
2023-01-10T01:09:14.307Z,1.90
2023-01-10T01:22:28.900Z,1.75
2023-01-10T01:28:38.366Z,1.57
2023-01-10T01:34:49.691Z,1.50
2023-01-10T01:41:00.431Z,2.05
2023-01-10T01:47:12.780Z,1.45
2023-01-10T01:53:24.451Z,1.50
2023-01-10T01:59:40.571Z,1.60
2023-01-10T02:05:50.683Z,1.87
2023-01-10T02:12:04.059Z,2.15
2023-01-10T02:18:18.330Z,1.75
2023-01-10T02:24:52.698Z,1.85
2023-01-10T02:31:51.961Z,1.98
2023-01-10T02:38:08.431Z,2.30
2023-01-10T02:44:20.959Z,1.40
2023-01-10T02:50:39.689Z,2.22
2023-01-10T02:57:14.002Z,2.20
2023-01-10T03:03:32.587Z,1.32
2023-01-10T03:09:46.839Z,1.82
2023-01-10T03:15:58.180Z,1.62
2023-01-10T03:22:09.405Z,2.33
2023-01-10T03:28:20.881Z,1.85
2023-01-10T03:34:35.813Z,1.92
2023-01-10T03:40:48.037Z,2.15
2023-01-10T03:46:59.542Z,2.75
2023-01-10T03:53:10.683Z,2.37
2023-01-10T03:59:19.487Z,1.20
2023-01-10T04:05:30.683Z,2.10
2023-01-10T04:11:44.097Z,2.72
2023-01-10T04:17:55.079Z,2.50
2023-01-10T04:24:02.806Z,2.58
2023-01-10T04:30:14.909Z,1.70
2023-01-10T04:36:25.230Z,2.12
2023-01-10T04:42:39.076Z,2.30
2023-01-10T04:48:52.139Z,1.92
2023-01-10T04:55:04.040Z,1.82
2023-01-10T05:01:23.257Z,2.02
2023-01-10T05:07:33.305Z,1.65
2023-01-10T05:13:42.334Z,1.90
2023-01-10T05:19:53.106Z,1.98
2023-01-10T05:26:04.057Z,2.52
2023-01-10T05:32:13.174Z,2.12
2023-01-10T05:38:25.272Z,1.35
2023-01-10T05:44:37.159Z,2.02
2023-01-10T05:50:49.257Z,1.87
2023-01-10T05:57:02.666Z,1.75
2023-01-10T06:03:16.211Z,1.77
2023-01-10T06:09:27.604Z,1.62
2023-01-10T06:15:37.371Z,1.65
2023-01-10T06:21:47.127Z,1.65
2023-01-10T06:27:56.059Z,1.50
2023-01-10T06:34:09.327Z,0.95
2023-01-10T06:40:19.685Z,1.40
2023-01-10T06:46:29.968Z,1.30
2023-01-10T06:52:42.028Z,1.32
2023-01-10T06:58:53.368Z,1.50
2023-01-10T07:05:04.794Z,1.47
2023-01-10T07:11:13.823Z,1.65
2023-01-10T07:17:21.410Z,1.40
2023-01-10T07:23:31.808Z,1.37
2023-01-10T07:29:44.448Z,1.10
2023-01-10T07:35:54.435Z,1.00
2023-01-10T07:42:04.017Z,1.00
2023-01-10T07:48:15.279Z,1.10
2023-01-10T07:54:27.066Z,0.95
2023-01-10T08:00:37.488Z,1.07
2023-01-10T08:06:46.898Z,1.00
2023-01-10T08:13:04.012Z,1.00
2023-01-10T08:19:13.632Z,1.05
2023-01-10T08:25:23.205Z,0.85
2023-01-10T08:31:32.498Z,0.70
2023-01-10T08:37:41.758Z,1.02
2023-01-10T08:43:54.927Z,1.32
2023-01-10T08:50:05.305Z,0.65
2023-01-10T08:56:15.880Z,0.98
2023-01-10T09:02:23.680Z,0.62
2023-01-10T09:08:32.928Z,1.07
2023-01-10T09:14:43.523Z,0.93
2023-01-10T09:20:55.784Z,0.72
2023-01-10T09:27:09.369Z,0.82
2023-01-10T09:33:21.186Z,0.62
2023-01-10T09:39:34.899Z,0.70
2023-01-10T09:45:48.324Z,0.50
2023-01-10T09:52:00.594Z,0.50
2023-01-10T09:58:16.646Z,1.07
2023-01-10T10:04:31.697Z,0.80
2023-01-10T10:10:43.894Z,0.62
2023-01-10T10:17:03.607Z,0.93
2023-01-10T10:23:21.261Z,0.80
2023-01-10T10:30:20.596Z,0.60
2023-01-10T10:36:31.639Z,1.02
2023-01-10T10:42:44.465Z,0.53
2023-01-10T10:48:57.735Z,0.70
2023-01-10T10:55:10.963Z,0.93
2023-01-10T11:01:21.412Z,0.80
2023-01-10T11:07:29.379Z,0.53
2023-01-10T11:13:47.044Z,0.85
2023-01-10T11:20:04.704Z,0.93
2023-01-10T11:26:19.371Z,1.02
2023-01-10T11:32:33.368Z,0.60
2023-01-10T11:38:44.685Z,0.80
2023-01-10T11:44:52.307Z,0.72
2023-01-10T11:51:07.559Z,0.82
2023-01-10T11:57:20.310Z,0.70
2023-01-10T12:03:31.139Z,0.62
2023-01-10T12:09:44.897Z,0.65
2023-01-10T12:15:53.976Z,0.42
2023-01-10T12:22:08.756Z,0.72
2023-01-10T12:28:20.123Z,0.57
2023-01-10T12:34:33.618Z,0.50
2023-01-10T12:40:45.310Z,0.40
2023-01-10T12:47:13.400Z,0.40
2023-01-10T12:53:07.502Z,0.70
2023-01-10T12:59:36.314Z,0.40
2023-01-10T13:05:34.009Z,0.62
2023-01-10T13:11:46.098Z,2.98
2023-01-10T13:17:55.711Z,8.33
2023-01-10T13:24:06.396Z,5.03
2023-01-10T13:30:30.510Z,2.15
2023-01-10T13:36:42.330Z,3.70
2023-01-10T13:43:26.960Z,2.75
2023-01-10T13:49:57.161Z,1.90
2023-01-10T13:56:10.286Z,1.98
2023-01-10T14:02:35.130Z,1.20
2023-01-10T14:08:51.803Z,1.20
2023-01-10T14:15:08.955Z,1.32
2023-01-10T14:21:28.093Z,1.30
2023-01-10T14:27:41.276Z,1.00
2023-01-10T14:33:54.460Z,0.80
2023-01-10T14:40:05.939Z,0.80
2023-01-10T14:46:19.833Z,1.07
2023-01-10T14:52:33.432Z,0.72
2023-01-10T14:58:43.941Z,0.80
2023-01-10T15:05:00.214Z,0.57
2023-01-10T15:11:13.346Z,0.70
2023-01-10T15:17:28.633Z,0.75
2023-01-10T15:23:44.917Z,0.80
2023-01-10T15:29:58.456Z,0.82
2023-01-10T15:36:19.143Z,0.90
2023-01-10T15:42:29.671Z,0.80
2023-01-10T15:48:37.787Z,0.70
2023-01-10T15:54:46.969Z,0.80
2023-01-10T16:00:58.395Z,1.10
2023-01-10T16:07:14.687Z,1.80
2023-01-10T16:13:33.687Z,0.70
2023-01-10T16:19:47.268Z,3.10
2023-01-10T16:26:05.295Z,2.15
2023-01-10T16:32:24.094Z,1.15
2023-01-10T16:38:34.244Z,1.50
2023-01-10T16:44:45.496Z,0.82
2023-01-10T16:50:55.771Z,0.78
2023-01-10T16:57:12.238Z,1.57
2023-01-10T17:03:22.029Z,1.73
2023-01-10T17:09:31.843Z,1.00
2023-01-10T17:15:43.897Z,0.50
2023-01-10T17:21:53.805Z,0.90
2023-01-10T17:28:03.964Z,1.00
2023-01-10T17:34:15.627Z,0.62
2023-01-10T17:40:28.981Z,1.05
2023-01-10T17:46:37.415Z,0.88
2023-01-10T17:52:49.018Z,0.80
2023-01-10T17:58:59.244Z,0.50
2023-01-10T18:05:13.399Z,0.85
2023-01-10T18:11:24.519Z,0.72
2023-01-10T18:17:36.281Z,0.65
2023-01-10T18:23:52.800Z,0.70
2023-01-10T18:30:06.924Z,0.50
2023-01-10T18:36:22.001Z,0.90
2023-01-10T18:42:31.363Z,0.57
2023-01-10T18:48:42.551Z,0.72
2023-01-10T18:54:53.095Z,0.85
2023-01-10T19:01:07.612Z,0.75
2023-01-10T19:07:19.609Z,1.10
2023-01-10T19:13:31.131Z,0.80
2023-01-10T19:19:42.351Z,0.82
2023-01-10T19:25:52.360Z,0.70
2023-01-10T19:32:03.093Z,0.95
2023-01-10T19:38:17.241Z,0.60
2023-01-10T19:44:25.806Z,0.90
2023-01-10T19:50:34.137Z,0.65
2023-01-10T19:56:43.220Z,1.10
2023-01-10T20:02:53.822Z,0.90
2023-01-10T20:09:07.447Z,1.22
2023-01-10T20:15:19.567Z,1.00
2023-01-10T20:21:31.871Z,0.57
2023-01-10T20:27:43.729Z,0.70
2023-01-10T20:33:53.307Z,0.60
2023-01-10T20:40:04.676Z,0.53
2023-01-10T20:46:19.187Z,0.60
2023-01-10T20:52:29.576Z,0.72
2023-01-10T20:58:40.950Z,0.88
2023-01-10T21:04:51.912Z,0.65
2023-01-10T21:11:01.719Z,0.65
2023-01-10T21:17:12.096Z,0.62
2023-01-10T21:23:21.882Z,0.95
2023-01-10T21:29:32.393Z,0.60
2023-01-10T21:42:16.756Z,0.87
2023-01-10T21:48:26.912Z,0.90
2023-01-10T21:54:38.894Z,1.25
2023-01-10T22:00:48.999Z,1.25
2023-01-10T22:07:01.792Z,0.80
2023-01-10T22:13:14.360Z,0.93
2023-01-10T22:19:27.383Z,0.78
2023-01-10T22:25:39.934Z,0.95
2023-01-10T22:31:51.493Z,1.00
2023-01-10T22:38:05.004Z,0.80
2023-01-10T22:44:20.050Z,1.27
2023-01-10T22:50:32.019Z,1.05
2023-01-10T22:56:46.288Z,1.00
2023-01-10T23:03:00.717Z,0.93
2023-01-10T23:09:11.739Z,0.70
2023-01-10T23:15:22.578Z,1.22
2023-01-10T23:21:37.928Z,1.30
2023-01-10T23:27:49.422Z,0.80
2023-01-10T23:33:59.414Z,0.82
2023-01-10T23:40:22.066Z,0.90
2023-01-10T23:46:35.096Z,0.65
2023-01-10T23:52:43.002Z,0.72
2023-01-10T23:58:54.425Z,0.90
